Newberg, OR (97132)

12:53 AM PDT on September 03, 2014 (GMT -0700)
North Newberg | Change Station
CLOSE
Current Station
Personal Weather Station
Location: Newberg, OR
Elevation: 240 ft
Nearby Weather Stations

Elev 240 ft 45.32 °N, 122.97 °W | Updated 14 seconds ago

Clear
Clear
52.5 °F
Feels Like 52.5 °F
N
0.0
Wind Variable Wind from West
Gusts 0.0 mph

Today
High -- | Low -- °F
--% Chance of Precip.
Yesterday
High -- | Low -- °F
Precip. -- in
6:36 AM 7:45 PM
First Quarter, 60% visible
Pressure 30.02 in
Visibility 10.0 miles
Clouds Clear
Dew Point 48 °F
Humidity 84%
Rainfall 0.00 in
Snow Depth Not available.
UV 0 out of 12
Pollen 3.60 out of 12
Air Quality Not available.
Flu Activity Not available.
METAR KUAO 030653Z AUTO 27003KT 10SM CLR 13/10 A3002 RMK AO2 SLP164 T01330100

More Conditions Fewer Conditions

Pressure 30.02 in
Visibility 10.0 miles
Clouds Clear
Dew Point 48 °F
Humidity 84%
Rainfall 0.00 in
Snow Depth Not available.
UV 0 out of 12
Pollen 3.60 out of 12
Air Quality Not available.
Flu Activity Not available.
METAR KUAO 030653Z AUTO 27003KT 10SM CLR 13/10 A3002 RMK AO2 SLP164 T01330100

More Conditions Fewer Conditions

10-Day Weather Forecast

Almanac

Astronomy

Sep. 03, 2014 Rise Set
Actual Time 6:36 AM PDT 7:45 PM PDT
Civil Twilight 6:05 AM PDT 8:15 PM PDT
Nautical Twilight 5:29 AM PDT 8:51 PM PDT
Astronomical Twilight 4:50 AM PDT 9:30 PM PDT
Moon 3:41 PM PDT 12:26 AM PDT
Length of Visible Light 14h 09m
Length of Day
13h 09m
Tomorrow will be 3m 5s shorter.
First Quarter, 60% of the Moon is Illuminated
Today
First Quarter
Sep 8
Full
Sep 15
Last Quarter
Sep 24
New
Oct 1
First Quarter

Today's Extremes

State Highs State Lows

Community

WunderPhotos

Upload Photos

1,749,899 photos uploaded!

Nearby

Snow Depth

Station Depth Elevation
Seine Creek 0 in 2000 ft
North Fork 1 in 3120 ft
Peavine Ridge 0 in 3500 ft
Blazed Alder 0 in 3650 ft
Mud Ridge 0 in 3800 ft

Earthquake Activity

City Distance Mag. Time & Date
No recent earthquake activity has been reported nearby.
Minimum magnitude displayed is 2.5.

Coastal Water Temperatures

Place Temperature
No Stations Reporting

Nearby Weather Stations